Time;durP1;ratioP1;P1;durP2;ratioP2;P2;SDS_P1;SDS_P2;PMS_P1;PMS_P2;Temp;Humidity;BMP_temperature;BMP_pressure;BME280_temperature;BME280_humidity;BME280_pressure;Samples;Min_cycle;Max_cycle;Signal;HPM_P1;HPM_P2
2023/07/12 00:01:23;;;;;;;;;;;;;;;24.44;55.78;100782.84;5053918;28;19917;-74
2023/07/12 00:03:48;;;;;;;;;;;;;;;24.44;55.74;100791.00;5065344;28;19917;-74
2023/07/12 00:06:15;;;;;;;;;;;;;;;24.43;55.77;100792.91;5068041;28;19940;-74
2023/07/12 00:08:43;;;;;;;;;;;;;;;24.44;55.70;100788.28;5053315;28;19917;-74
2023/07/12 00:11:16;;;;;;;;;;;;;;;24.43;55.57;100779.31;5048556;28;19920;-74
2023/07/12 00:13:42;;;;;;;;;;;;;;;24.42;55.60;100777.66;5053631;28;19967;-74
2023/07/12 00:16:33;;;;;;;;;;;;;;;24.43;55.72;100784.75;5047548;28;20473;-74
2023/07/12 00:18:58;;;;;;;;;;;;;;;24.42;55.56;100774.94;5051361;28;19933;-74
2023/07/12 00:21:24;;;;;;;;;;;;;;;24.41;55.55;100778.66;5053968;28;19917;-73
2023/07/12 00:23:53;;;;;;;;;;;;;;;24.42;55.55;100771.34;5053288;28;19921;-73
2023/07/12 00:26:22;;;;;;;;;;;;;;;24.41;55.46;100775.13;5052348;28;19981;-74
2023/07/12 00:28:47;;;;;;;;;;;;;;;24.41;55.53;100762.34;5052035;28;19921;-74
2023/07/12 00:31:13;;;;;;;;;;;;;;;24.41;55.59;100777.84;5050378;28;19913;-74
2023/07/12 00:33:38;;;;;;;;;;;;;;;24.41;55.48;100783.25;5084187;28;19913;-74
2023/07/12 00:36:04;;;;;;;;;;;;;;;24.40;55.59;100779.72;5051822;28;20554;-74
2023/07/12 00:38:29;;;;;;;;;;;;;;;24.40;55.53;100776.16;5048287;28;20019;-73
2023/07/12 00:41:10;;;;;;;;;;;;;;;24.39;55.53;100778.06;5052331;28;19917;-74
2023/07/12 00:43:36;;;;;;;;;;;;;;;24.38;55.51;100784.53;5047205;28;19940;-74
2023/07/12 00:46:03;;;;;;;;;;;;;;;24.38;55.65;100776.38;5053580;28;19918;-74
2023/07/12 00:48:28;;;;;;;;;;;;;;;24.39;55.51;100777.22;5084594;28;19924;-73
2023/07/12 00:50:53;;;;;;;;;;;;;;;24.38;55.61;100770.09;5052118;28;19912;-73
2023/07/12 00:53:19;;;;;;;;;;;;;;;24.38;55.39;100770.09;5051540;28;19935;-74
2023/07/12 00:55:51;;;;;;;;;;;;;;;24.38;55.66;100764.66;5052797;28;19913;-74
2023/07/12 00:58:16;;;;;;;;;;;;;;;24.38;55.44;100772.81;5066160;28;19914;-74
2023/07/12 01:00:41;;;;;;;;;;;;;;;24.36;55.49;100781.16;5052719;28;19916;-74
2023/07/12 01:03:06;;;;;;;;;;;;;;;24.37;55.45;100780.13;5050380;28;19952;-74
2023/07/12 01:05:32;;;;;;;;;;;;;;;24.37;55.37;100779.25;5049805;28;19913;-74
2023/07/12 01:07:57;;;;;;;;;;;;;;;24.36;55.20;100792.00;5050321;28;19941;-74
2023/07/12 01:10:23;;;;;;;;;;;;;;;24.36;55.44;100791.19;5048227;28;19913;-74
2023/07/12 01:12:48;;;;;;;;;;;;;;;24.35;55.35;100793.06;5049578;28;19913;-74
2023/07/12 01:15:13;;;;;;;;;;;;;;;24.37;55.36;100790.13;5050974;28;19920;-74
2023/07/12 01:17:38;;;;;;;;;;;;;;;24.35;55.43;100786.81;5081211;28;19921;-73
2023/07/12 01:20:04;;;;;;;;;;;;;;;24.36;55.36;100793.91;5049939;28;20420;-74
2023/07/12 01:22:30;;;;;;;;;;;;;;;24.35;55.25;100786.81;5051836;28;19928;-74
2023/07/12 01:24:55;;;;;;;;;;;;;;;24.34;55.37;100796.84;5051078;28;19921;-74
2023/07/12 01:27:23;;;;;;;;;;;;;;;24.34;55.39;100802.28;5051969;28;20301;-74
2023/07/12 01:29:49;;;;;;;;;;;;;;;24.33;55.04;100800.56;5047777;28;19967;-74
2023/07/12 01:32:14;;;;;;;;;;;;;;;24.33;55.28;100806.00;5081773;28;20520;-74
2023/07/12 01:34:40;;;;;;;;;;;;;;;24.33;55.41;100808.72;5051082;28;19913;-74
2023/07/12 01:37:05;;;;;;;;;;;;;;;24.33;55.17;100814.16;5049175;28;20558;-74
2023/07/12 01:39:33;;;;;;;;;;;;;;;24.32;55.26;100823.34;5050531;28;19916;-73
2023/07/12 01:41:59;;;;;;;;;;;;;;;24.33;55.39;100854.09;5052003;28;19922;-74
2023/07/12 01:44:24;;;;;;;;;;;;;;;24.32;55.16;100863.28;5050338;28;19919;-72
2023/07/12 01:46:49;;;;;;;;;;;;;;;24.33;55.25;100873.09;5054317;28;20000;-73
2023/07/12 01:49:14;;;;;;;;;;;;;;;24.32;55.29;100858.69;5054000;28;19913;-74
2023/07/12 01:51:40;;;;;;;;;;;;;;;24.31;55.09;100829.00;5056870;28;19939;-74
2023/07/12 01:54:05;;;;;;;;;;;;;;;24.32;55.20;100866.00;5084899;28;20003;-74
2023/07/12 01:56:30;;;;;;;;;;;;;;;24.31;55.30;100853.47;5056564;28;19912;-74
2023/07/12 01:58:55;;;;;;;;;;;;;;;24.30;55.27;100858.06;5050589;28;19919;-74
2023/07/12 02:01:21;;;;;;;;;;;;;;;24.30;55.04;100849.91;5056316;28;19999;-74
2023/07/12 02:03:46;;;;;;;;;;;;;;;24.30;55.04;100860.78;5050992;28;19921;-74
2023/07/12 02:06:11;;;;;;;;;;;;;;;24.30;55.29;100876.22;5053572;28;19976;-74
2023/07/12 02:08:36;;;;;;;;;;;;;;;24.29;55.07;100831.91;5055472;28;19936;-74
2023/07/12 02:11:01;;;;;;;;;;;;;;;24.29;55.08;100817.50;5084384;28;19913;-74
2023/07/12 02:13:27;;;;;;;;;;;;;;;24.29;55.00;100812.06;5053731;28;19917;-74
2023/07/12 02:15:52;;;;;;;;;;;;;;;24.28;55.00;100811.22;5055522;28;19913;-74
2023/07/12 02:18:17;;;;;;;;;;;;;;;24.29;54.92;100795.75;5052830;28;19931;-74
2023/07/12 02:20:42;;;;;;;;;;;;;;;24.28;54.99;100781.34;5071168;28;19943;-74
2023/07/12 02:23:08;;;;;;;;;;;;;;;24.27;54.92;100790.53;5055262;28;19917;-73
2023/07/12 02:25:33;;;;;;;;;;;;;;;24.26;55.05;100767.16;5054670;28;19917;-73
2023/07/12 02:27:58;;;;;;;;;;;;;;;24.25;54.83;100730.13;5054148;28;19924;-74
2023/07/12 02:30:25;;;;;;;;;;;;;;;24.26;54.95;100698.38;5055185;28;19928;-74
2023/07/12 02:32:50;;;;;;;;;;;;;;;24.26;54.97;100701.09;5083734;28;19913;-74
2023/07/12 02:35:16;;;;;;;;;;;;;;;24.25;54.79;100710.28;5055389;28;19917;-74
2023/07/12 02:37:41;;;;;;;;;;;;;;;24.25;54.85;100704.84;5066505;28;19924;-74
2023/07/12 02:40:11;;;;;;;;;;;;;;;24.25;54.67;100697.53;5085893;28;19959;-74
2023/07/12 02:42:36;;;;;;;;;;;;;;;24.24;54.82;100652.38;5056691;28;19988;-74
2023/07/12 02:45:02;;;;;;;;;;;;;;;24.24;54.78;100746.66;5053285;28;19940;-74
2023/07/12 02:47:27;;;;;;;;;;;;;;;24.25;54.91;100756.47;5053723;28;19913;-73
2023/07/12 02:49:52;;;;;;;;;;;;;;;24.23;54.80;100789.28;5056227;28;19916;-73
2023/07/12 02:52:18;;;;;;;;;;;;;;;24.23;54.68;100794.72;5055371;28;19921;-74
2023/07/12 02:54:43;;;;;;;;;;;;;;;24.23;54.93;100781.13;5052429;28;19920;-74
2023/07/12 02:57:09;;;;;;;;;;;;;;;24.24;54.86;100798.28;5055713;28;19980;-74
2023/07/12 02:59:34;;;;;;;;;;;;;;;24.23;54.74;100775.69;5050340;28;19920;-73
2023/07/12 03:01:59;;;;;;;;;;;;;;;24.23;54.80;100785.72;5054689;28;19925;-73
2023/07/12 03:04:24;;;;;;;;;;;;;;;24.22;54.80;100778.63;5051420;28;19913;-73
2023/07/12 03:06:50;;;;;;;;;;;;;;;24.22;54.88;100786.78;5053544;28;19967;-74
2023/07/12 03:09:15;;;;;;;;;;;;;;;24.20;54.75;100790.53;5053601;28;19935;-74
2023/07/12 03:11:40;;;;;;;;;;;;;;;24.20;54.74;100790.53;5053913;28;19924;-74
2023/07/12 03:14:06;;;;;;;;;;;;;;;24.21;54.71;100785.91;5054870;28;19971;-73
2023/07/12 03:16:31;;;;;;;;;;;;;;;24.20;54.78;100787.81;5052914;28;19920;-74
2023/07/12 03:18:58;;;;;;;;;;;;;;;24.20;54.75;100784.25;5051894;28;19925;-74
2023/07/12 03:21:23;;;;;;;;;;;;;;;24.19;54.44;100777.16;5051409;28;19913;-73
2023/07/12 03:23:48;;;;;;;;;;;;;;;24.19;54.63;100783.41;5056038;28;19924;-73
2023/07/12 03:26:14;;;;;;;;;;;;;;;24.18;54.65;100775.50;5052757;28;19919;-73
2023/07/12 03:28:39;;;;;;;;;;;;;;;24.18;54.63;100762.75;5050588;28;19924;-74
2023/07/12 03:31:08;;;;;;;;;;;;;;;24.18;54.61;100770.06;5054117;28;19913;-74
2023/07/12 03:33:33;;;;;;;;;;;;;;;24.18;54.46;100778.22;5083128;28;19917;-74
2023/07/12 03:35:59;;;;;;;;;;;;;;;24.18;54.45;100780.94;5053780;28;19920;-74
2023/07/12 03:38:25;;;;;;;;;;;;;;;24.17;54.52;100785.53;5082717;28;19916;-73
2023/07/12 03:40:51;;;;;;;;;;;;;;;24.17;54.61;100798.25;5085661;28;19958;-73
2023/07/12 03:43:16;;;;;;;;;;;;;;;24.16;54.45;100816.44;5053340;28;19984;-73
2023/07/12 03:45:42;;;;;;;;;;;;;;;24.16;54.65;100813.72;5053558;28;19935;-73
2023/07/12 03:48:07;;;;;;;;;;;;;;;24.16;54.60;100813.72;5081859;28;20011;-73
2023/07/12 03:50:32;;;;;;;;;;;;;;;24.16;54.63;100821.03;5085655;28;20314;-73
2023/07/12 03:52:58;;;;;;;;;;;;;;;24.15;54.57;100828.34;5053980;28;19992;-73
2023/07/12 03:55:23;;;;;;;;;;;;;;;24.15;54.38;100831.06;5051364;28;19920;-74
2023/07/12 03:57:48;;;;;;;;;;;;;;;24.14;54.55;100832.09;5052615;28;19917;-74
2023/07/12 04:00:13;;;;;;;;;;;;;;;24.15;54.55;100827.50;5082061;28;19913;-74
2023/07/12 04:02:42;;;;;;;;;;;;;;;24.15;54.65;100830.22;5034158;28;19917;-73
2023/07/12 04:05:07;;;;;;;;;;;;;;;24.14;54.58;100832.09;5047969;28;19913;-73
2023/07/12 04:07:33;;;;;;;;;;;;;;;24.14;54.38;100829.38;5051235;28;19913;-74
2023/07/12 04:09:58;;;;;;;;;;;;;;;24.14;54.41;100834.00;5051901;28;19913;-73
2023/07/12 04:12:23;;;;;;;;;;;;;;;24.13;54.39;100844.03;5082905;28;19968;-73
2023/07/12 04:14:48;;;;;;;;;;;;;;;24.13;54.70;100846.75;5084477;28;19916;-74
2023/07/12 04:17:14;;;;;;;;;;;;;;;24.13;54.42;100848.63;5052148;28;20405;-73
2023/07/12 04:19:39;;;;;;;;;;;;;;;24.12;54.59;100850.47;5052491;28;19923;-73
2023/07/12 04:22:04;;;;;;;;;;;;;;;24.13;54.33;100843.19;5050655;28;19928;-73
2023/07/12 04:24:29;;;;;;;;;;;;;;;24.12;54.29;100844.22;5055061;28;19917;-73
2023/07/12 04:26:54;;;;;;;;;;;;;;;24.11;54.49;100843.38;5047507;28;19967;-74
2023/07/12 04:29:20;;;;;;;;;;;;;;;24.12;54.35;100850.47;5051427;28;19940;-73
2023/07/12 04:31:45;;;;;;;;;;;;;;;24.11;54.23;100843.38;5083259;28;19913;-73
2023/07/12 04:34:10;;;;;;;;;;;;;;;24.11;54.12;100840.66;5049201;28;19917;-73
2023/07/12 04:36:35;;;;;;;;;;;;;;;24.11;54.47;100853.41;5054681;28;19913;-73
2023/07/12 04:39:00;;;;;;;;;;;;;;;24.11;54.28;100853.41;5051571;28;19921;-74
2023/07/12 04:41:26;;;;;;;;;;;;;;;24.10;54.32;100865.31;5085312;28;19913;-73
2023/07/12 04:43:51;;;;;;;;;;;;;;;24.09;54.21;100860.94;5051719;28;19928;-73
2023/07/12 04:46:16;;;;;;;;;;;;;;;24.09;54.19;100860.94;5054342;28;19913;-73
2023/07/12 04:48:41;;;;;;;;;;;;;;;24.10;54.43;100859.88;5079367;28;19940;-75
2023/07/12 04:51:07;;;;;;;;;;;;;;;24.09;54.44;100866.38;5053363;28;20416;-75
2023/07/12 04:53:32;;;;;;;;;;;;;;;24.09;54.38;100861.78;5082982;28;20314;-75
2023/07/12 04:55:58;;;;;;;;;;;;;;;24.08;54.48;100838.34;5047829;28;19917;-75
2023/07/12 04:58:23;;;;;;;;;;;;;;;24.09;54.30;100847.34;5087488;28;19955;-75
2023/07/12 05:00:48;;;;;;;;;;;;;;;24.08;54.32;100835.63;5048481;28;19941;-77
2023/07/12 05:03:15;;;;;;;;;;;;;;;24.08;54.39;100845.66;5052468;28;19917;-74
2023/07/12 05:05:40;;;;;;;;;;;;;;;24.08;54.44;100859.25;5081552;28;19916;-73
2023/07/12 05:08:06;;;;;;;;;;;;;;;24.08;54.15;100857.34;5081262;28;19924;-74
2023/07/12 05:10:31;;;;;;;;;;;;;;;24.07;54.29;100863.00;5050049;28;19928;-74
2023/07/12 05:12:56;;;;;;;;;;;;;;;24.08;54.37;100870.94;5052625;28;20322;-75
2023/07/12 05:15:21;;;;;;;;;;;;;;;24.07;54.54;100866.56;5085215;28;19913;-76
2023/07/12 05:17:47;;;;;;;;;;;;;;;24.07;54.39;100880.13;5051473;28;19921;-74
2023/07/12 05:20:12;;;;;;;;;;;;;;;24.08;54.58;100870.09;5084245;28;19972;-76
2023/07/12 05:22:38;;;;;;;;;;;;;;;24.08;54.52;100875.53;5046487;28;19918;-76
2023/07/12 05:25:03;;;;;;;;;;;;;;;24.07;54.58;100882.84;5068316;28;19976;-76
2023/07/12 05:27:28;;;;;;;;;;;;;;;24.07;54.63;100884.72;5045567;28;19924;-76
2023/07/12 05:29:53;;;;;;;;;;;;;;;24.07;54.54;100888.28;5048322;28;19917;-75
2023/07/12 05:32:19;;;;;;;;;;;;;;;24.07;54.66;100891.00;5051590;28;20267;-74
2023/07/12 05:34:44;;;;;;;;;;;;;;;24.07;54.65;100893.72;5050854;28;19913;-75
2023/07/12 05:37:10;;;;;;;;;;;;;;;24.07;54.64;100901.03;5052540;28;19913;-74
2023/07/12 05:39:35;;;;;;;;;;;;;;;24.07;54.59;100903.75;5052457;28;19997;-76
2023/07/12 05:42:00;;;;;;;;;;;;;;;24.07;54.71;100904.56;5050557;28;19925;-75
2023/07/12 05:44:25;;;;;;;;;;;;;;;24.07;54.53;100898.31;5052229;28;20282;-75
2023/07/12 05:46:50;;;;;;;;;;;;;;;24.07;54.81;100904.56;5051759;28;20306;-76
2023/07/12 05:49:16;;;;;;;;;;;;;;;24.07;54.76;100906.47;5049267;28;20389;-74
2023/07/12 05:51:41;;;;;;;;;;;;;;;24.07;54.66;100907.28;5049947;28;20358;-75
2023/07/12 05:54:06;;;;;;;;;;;;;;;24.08;54.57;100906.25;5049683;28;20392;-76
2023/07/12 05:56:32;;;;;;;;;;;;;;;24.08;54.55;100894.56;5047238;28;19985;-74
2023/07/12 05:58:57;;;;;;;;;;;;;;;24.08;54.71;100903.53;5084757;28;19913;-75
2023/07/12 06:01:22;;;;;;;;;;;;;;;24.08;54.47;100910.84;5047859;28;19948;-75
2023/07/12 06:03:48;;;;;;;;;;;;;;;24.08;54.62;100908.97;5083087;28;19924;-76
2023/07/12 06:06:13;;;;;;;;;;;;;;;24.08;54.57;100911.69;5085246;28;19913;-75
2023/07/12 06:08:38;;;;;;;;;;;;;;;24.08;54.56;100908.97;5050821;28;19924;-72
2023/07/12 06:11:04;;;;;;;;;;;;;;;24.08;54.45;100903.53;5049287;28;19920;-76
2023/07/12 06:13:29;;;;;;;;;;;;;;;24.08;54.80;100897.25;5052106;28;19927;-76
2023/07/12 06:15:54;;;;;;;;;;;;;;;24.09;54.60;100915.25;5050306;28;19913;-76
2023/07/12 06:18:20;;;;;;;;;;;;;;;24.09;54.76;100926.13;5050920;28;20647;-77
2023/07/12 06:20:45;;;;;;;;;;;;;;;24.09;54.80;100923.41;5082932;28;19913;-74
2023/07/12 06:23:11;;;;;;;;;;;;;;;24.09;54.58;100916.09;5048778;28;19979;-78
2023/07/12 06:25:36;;;;;;;;;;;;;;;24.09;54.93;100921.53;5049938;28;19924;-77
2023/07/12 06:28:01;;;;;;;;;;;;;;;24.10;54.73;100930.50;5049421;28;20027;-72
2023/07/12 06:30:27;;;;;;;;;;;;;;;24.09;54.71;100928.84;5022921;28;19927;-74
2023/07/12 06:32:52;;;;;;;;;;;;;;;24.10;54.74;100927.78;5036190;28;19980;-75
2023/07/12 06:35:17;;;;;;;;;;;;;;;24.10;54.49;100941.38;5049974;28;19917;-74
2023/07/12 06:37:42;;;;;;;;;;;;;;;24.10;54.73;100931.34;5052954;28;19925;-74
2023/07/12 06:40:08;;;;;;;;;;;;;;;24.11;54.74;100934.91;5052996;28;19913;-74
2023/07/12 06:42:33;;;;;;;;;;;;;;;24.11;54.62;100943.88;5054555;28;19921;-74
2023/07/12 06:44:58;;;;;;;;;;;;;;;24.10;54.78;100942.22;5051235;28;20083;-82
2023/07/12 06:47:24;;;;;;;;;;;;;;;24.10;54.67;100944.94;5086119;28;19976;-77
2023/07/12 06:49:49;;;;;;;;;;;;;;;24.10;54.70;100950.38;5049493;28;19913;-76
2023/07/12 06:52:14;;;;;;;;;;;;;;;24.11;54.62;100948.47;5054624;28;19912;-78
2023/07/12 06:54:39;;;;;;;;;;;;;;;24.11;54.72;100951.19;5055517;28;19917;-74
2023/07/12 06:57:05;;;;;;;;;;;;;;;24.11;54.61;100953.91;5053116;28;19913;-79
2023/07/12 06:59:30;;;;;;;;;;;;;;;24.11;54.76;100959.34;5038680;28;19916;-72
2023/07/12 07:01:55;;;;;;;;;;;;;;;24.10;54.70;100958.50;5054928;28;19917;-72
2023/07/12 07:04:20;;;;;;;;;;;;;;;24.11;54.63;100964.78;5084086;28;19921;-72
2023/07/12 07:06:46;;;;;;;;;;;;;;;24.11;54.63;100967.50;5087903;28;19917;-71
2023/07/12 07:09:11;;;;;;;;;;;;;;;24.12;54.44;100969.16;5052835;28;19927;-71
2023/07/12 07:11:36;;;;;;;;;;;;;;;24.11;54.75;100960.19;5052664;28;19972;-72
2023/07/12 07:14:01;;;;;;;;;;;;;;;24.12;54.54;100969.16;5053935;28;19913;-72
2023/07/12 07:16:27;;;;;;;;;;;;;;;24.11;54.43;100976.47;5084282;28;19920;-73
2023/07/12 07:18:52;;;;;;;;;;;;;;;24.12;54.44;100972.72;5051375;28;19925;-73
2023/07/12 07:21:17;;;;;;;;;;;;;;;24.12;54.30;100971.88;5048633;28;20025;-73
2023/07/12 07:23:43;;;;;;;;;;;;;;;24.12;54.43;100967.28;5045623;28;19992;-72
2023/07/12 07:26:09;;;;;;;;;;;;;;;24.11;54.56;100965.63;5052639;28;19925;-76
2023/07/12 07:28:34;;;;;;;;;;;;;;;24.11;54.37;100973.75;5051337;28;19921;-76
2023/07/12 07:31:00;;;;;;;;;;;;;;;24.11;54.37;100970.22;5067704;28;19964;-77
2023/07/12 07:33:25;;;;;;;;;;;;;;;24.11;54.40;100973.75;5076219;28;19925;-72
2023/07/12 07:35:51;;;;;;;;;;;;;;;24.10;54.29;100977.53;5054143;28;19921;-75
2023/07/12 07:38:16;;;;;;;;;;;;;;;24.11;54.40;100981.06;5049898;28;20007;-74
2023/07/12 07:40:41;;;;;;;;;;;;;;;24.11;54.24;100972.94;5052374;28;19960;-75
2023/07/12 07:43:10;;;;;;;;;;;;;;;24.10;54.30;100982.97;5054381;28;19928;-75
2023/07/12 07:45:35;;;;;;;;;;;;;;;24.11;54.42;100981.91;5052498;28;19997;-75
2023/07/12 07:48:01;;;;;;;;;;;;;;;24.11;54.32;100981.06;5086708;28;19920;-75
2023/07/12 07:50:26;;;;;;;;;;;;;;;24.11;54.28;100981.91;5051576;28;19917;-71
2023/07/12 07:52:53;;;;;;;;;;;;;;;24.12;54.26;100982.75;5053161;28;19917;-75
2023/07/12 07:55:18;;;;;;;;;;;;;;;24.12;54.29;100982.75;5049282;28;19917;-77
2023/07/12 07:57:44;;;;;;;;;;;;;;;24.12;53.99;100990.91;5053315;28;19913;-76
2023/07/12 08:00:10;;;;;;;;;;;;;;;24.12;54.09;100989.00;5084906;28;19913;-77
2023/07/12 08:02:35;;;;;;;;;;;;;;;24.13;53.98;100995.31;5048060;28;20005;-78
2023/07/12 08:05:01;;;;;;;;;;;;;;;24.14;54.17;100996.97;5051702;28;20286;-76
2023/07/12 08:07:26;;;;;;;;;;;;;;;24.14;54.20;101000.53;5052217;28;19920;-76
2023/07/12 08:09:52;;;;;;;;;;;;;;;24.15;54.14;100998.66;5046357;28;19924;-76
2023/07/12 08:12:17;;;;;;;;;;;;;;;24.16;54.08;100998.44;5051273;28;19924;-76
2023/07/12 08:14:42;;;;;;;;;;;;;;;24.17;54.22;101010.13;5052817;28;19913;-76
2023/07/12 08:17:08;;;;;;;;;;;;;;;24.17;54.03;101010.13;5048208;28;20005;-76
2023/07/12 08:19:33;;;;;;;;;;;;;;;24.17;53.94;101018.28;5045012;28;19921;-76
2023/07/12 08:21:59;;;;;;;;;;;;;;;24.18;54.06;101009.13;5034911;28;19995;-76
2023/07/12 08:24:24;;;;;;;;;;;;;;;24.18;53.99;101011.84;5052110;28;19940;-76
2023/07/12 08:26:49;;;;;;;;;;;;;;;24.18;53.93;101012.66;5050381;28;19913;-76
2023/07/12 08:29:14;;;;;;;;;;;;;;;24.18;53.99;101020.00;5048937;28;20394;-76
2023/07/12 08:31:40;;;;;;;;;;;;;;;24.18;53.88;101017.28;5051977;28;19913;-76
2023/07/12 08:34:05;;;;;;;;;;;;;;;24.18;53.72;101020.00;5051740;28;19913;-77
2023/07/12 08:36:30;;;;;;;;;;;;;;;24.18;54.13;101020.81;5054194;28;19913;-77
2023/07/12 08:38:55;;;;;;;;;;;;;;;24.17;53.96;101021.88;5047755;28;19920;-76
2023/07/12 08:41:21;;;;;;;;;;;;;;;24.19;53.90;101027.94;5049772;28;19923;-76
2023/07/12 08:43:46;;;;;;;;;;;;;;;24.19;54.00;101021.66;5049655;28;19923;-77
2023/07/12 08:46:16;;;;;;;;;;;;;;;24.19;53.93;101027.94;5048667;28;19913;-76
2023/07/12 08:48:41;;;;;;;;;;;;;;;24.18;54.03;101025.44;5050858;28;19913;-76
2023/07/12 08:51:16;;;;;;;;;;;;;;;24.18;53.78;101022.72;5082267;28;19921;-76
2023/07/12 08:53:41;;;;;;;;;;;;;;;24.18;53.93;101020.81;5084275;28;20130;-76
2023/07/12 08:56:09;;;;;;;;;;;;;;;24.19;53.76;101021.66;5052588;28;19928;-76
2023/07/12 08:58:36;;;;;;;;;;;;;;;24.19;53.83;101018.94;5081876;28;19948;-77
2023/07/12 09:01:06;;;;;;;;;;;;;;;24.20;53.87;101026.03;5033782;28;20275;-76
2023/07/12 09:03:31;;;;;;;;;;;;;;;24.20;53.90;101029.59;5052524;28;19917;-76
2023/07/12 09:05:57;;;;;;;;;;;;;;;24.20;53.74;101012.47;5050667;28;19917;-77
2023/07/12 09:08:25;;;;;;;;;;;;;;;24.20;53.84;101015.19;5053130;28;19939;-76
2023/07/12 09:10:54;;;;;;;;;;;;;;;24.22;53.63;101015.00;5081582;28;19977;-77
2023/07/12 09:13:20;;;;;;;;;;;;;;;24.21;53.69;101014.13;5046758;28;19917;-77
2023/07/12 09:15:49;;;;;;;;;;;;;;;24.21;53.70;101014.13;5055070;28;20439;-77
2023/07/12 09:18:22;;;;;;;;;;;;;;;24.22;53.76;101007.69;5048853;28;19964;-77
2023/07/12 09:20:48;;;;;;;;;;;;;;;24.23;53.84;101013.94;5049420;28;20278;-77
2023/07/12 09:23:15;;;;;;;;;;;;;;;24.23;53.65;101011.22;5049216;28;19917;-76
2023/07/12 09:25:42;;;;;;;;;;;;;;;24.22;53.93;101010.41;5050508;28;19917;-76
2023/07/12 09:28:11;;;;;;;;;;;;;;;24.23;53.65;101009.34;5050527;28;19952;-76
2023/07/12 09:30:37;;;;;;;;;;;;;;;24.24;53.64;101013.75;5054787;28;19913;-77
2023/07/12 09:33:03;;;;;;;;;;;;;;;24.25;53.89;101011.84;5049770;28;19919;-77
2023/07/12 09:35:38;;;;;;;;;;;;;;;24.26;53.69;101016.28;5083158;28;19933;-76
2023/07/12 09:38:06;;;;;;;;;;;;;;;24.21;53.68;101027.72;5050485;28;19936;-75
2023/07/12 09:40:35;;;;;;;;;;;;;;;24.11;53.13;101038.94;5047156;28;20019;-75
2023/07/12 09:43:00;;;;;;;;;;;;;;;24.05;52.71;101023.47;5085176;28;19916;-75
2023/07/12 09:45:26;;;;;;;;;;;;;;;23.96;52.58;101027.38;5029648;28;19921;-75
2023/07/12 09:47:55;;;;;;;;;;;;;;;23.88;52.21;101035.69;5085266;28;20385;-75
2023/07/12 09:50:30;;;;;;;;;;;;;;;23.78;52.46;101040.63;5049286;28;20000;-75
2023/07/12 09:52:55;;;;;;;;;;;;;;;23.68;52.03;101046.41;5050531;28;19980;-75
2023/07/12 09:55:39;;;;;;;;;;;;;;;23.60;51.60;101038.38;5049994;28;19917;-77
2023/07/12 09:58:13;;;;;;;;;;;;;;;23.50;51.37;101041.41;5051255;28;19920;-75
2023/07/12 10:00:39;;;;;;;;;;;;;;;23.44;52.37;101048.44;5049687;28;19917;-74
2023/07/12 10:03:04;;;;;;;;;;;;;;;23.38;52.20;101045.69;5052365;28;19921;-74
2023/07/12 10:05:29;;;;;;;;;;;;;;;23.34;52.66;101049.84;5049417;28;19921;-76
2023/07/12 10:08:00;;;;;;;;;;;;;;;23.25;52.48;101049.13;5083053;28;19920;-75
2023/07/12 10:10:31;;;;;;;;;;;;;;;23.13;52.93;101045.25;5088532;28;20366;-84
2023/07/12 10:13:01;;;;;;;;;;;;;;;22.90;53.59;101048.16;5050075;28;19924;-79
2023/07/12 10:15:27;;;;;;;;;;;;;;;22.71;54.02;101054.97;5058476;28;19940;-78
2023/07/12 10:17:52;;;;;;;;;;;;;;;22.53;55.14;101057.25;5086424;28;19924;-75
2023/07/12 10:20:20;;;;;;;;;;;;;;;22.50;55.21;101054.91;5088469;28;19912;-75
2023/07/12 10:22:45;;;;;;;;;;;;;;;22.56;55.02;101041.47;5085261;28;19921;-78
2023/07/12 10:25:18;;;;;;;;;;;;;;;22.67;55.15;101043.66;5084402;28;20461;-77
2023/07/12 10:27:46;;;;;;;;;;;;;;;22.81;54.70;101052.81;5052315;28;19928;-78
2023/07/12 10:30:18;;;;;;;;;;;;;;;22.92;54.48;101049.63;5055581;28;19920;-77
2023/07/12 10:32:48;;;;;;;;;;;;;;;23.04;54.19;101052.66;5066565;28;19982;-78
2023/07/12 10:35:16;;;;;;;;;;;;;;;23.14;54.19;101052.34;5085425;28;20016;-77
2023/07/12 10:37:46;;;;;;;;;;;;;;;23.22;53.98;101063.06;5052876;28;20279;-77
2023/07/12 10:40:12;;;;;;;;;;;;;;;23.32;53.93;101068.16;5067066;28;19935;-77
2023/07/12 10:42:51;;;;;;;;;;;;;;;23.38;53.72;101061.97;5053317;28;20067;-77
2023/07/12 10:45:33;;;;;;;;;;;;;;;23.44;53.80;101072.88;5051334;28;19912;-76
2023/07/12 10:47:58;;;;;;;;;;;;;;;23.50;53.93;101079.41;5050888;28;19968;-77
2023/07/12 10:50:48;;;;;;;;;;;;;;;23.53;53.88;101076.28;5085831;28;19919;-77
2023/07/12 10:53:17;;;;;;;;;;;;;;;23.58;54.01;101068.44;5084903;28;19924;-75
2023/07/12 10:55:44;;;;;;;;;;;;;;;23.61;54.07;101083.47;5048600;28;20362;-76
2023/07/12 10:58:14;;;;;;;;;;;;;;;23.64;54.06;101096.66;5053422;28;19917;-75
2023/07/12 11:00:47;;;;;;;;;;;;;;;23.66;53.84;101102.75;5050148;28;19923;-76
2023/07/12 11:03:18;;;;;;;;;;;;;;;23.67;53.90;101102.56;5052010;28;19921;-76
2023/07/12 11:06:00;;;;;;;;;;;;;;;23.69;53.88;101097.75;5084244;28;19913;-75
2023/07/12 11:08:32;;;;;;;;;;;;;;;23.72;53.73;101091.13;5064363;28;19917;-75
2023/07/12 11:11:09;;;;;;;;;;;;;;;23.74;53.65;101096.34;5057320;28;20012;-74
2023/07/12 11:13:35;;;;;;;;;;;;;;;23.77;53.71;101098.66;5050296;28;19920;-75
2023/07/12 11:16:05;;;;;;;;;;;;;;;23.80;53.67;101095.56;5086107;28;19913;-75
2023/07/12 11:18:35;;;;;;;;;;;;;;;23.83;53.66;101104.16;5054145;28;19986;-75
2023/07/12 11:21:04;;;;;;;;;;;;;;;23.84;53.73;101100.41;5083901;28;19917;-75
2023/07/12 11:23:32;;;;;;;;;;;;;;;23.89;53.63;101097.09;5053642;28;19917;-76
2023/07/12 11:26:01;;;;;;;;;;;;;;;23.91;53.50;101087.69;5054121;28;19913;-76
2023/07/12 11:28:47;;;;;;;;;;;;;;;23.93;53.60;101103.81;5084292;28;19917;-75
2023/07/12 11:31:15;;;;;;;;;;;;;;;23.94;53.47;101098.19;5048150;28;19921;-75
2023/07/12 11:33:41;;;;;;;;;;;;;;;23.94;53.54;101098.19;5050685;28;19987;-75
2023/07/12 11:36:08;;;;;;;;;;;;;;;23.95;53.73;101101.72;5051398;28;19917;-76
2023/07/12 11:38:35;;;;;;;;;;;;;;;23.92;53.91;101092.13;5084024;28;19913;-74
2023/07/12 11:41:13;;;;;;;;;;;;;;;23.93;54.04;101095.66;5046226;28;19917;-74
2023/07/12 11:43:38;;;;;;;;;;;;;;;23.93;54.10;101101.94;5089721;28;19928;-74
2023/07/12 11:46:10;;;;;;;;;;;;;;;23.93;54.12;101101.09;5053164;28;19940;-74
2023/07/12 11:48:35;;;;;;;;;;;;;;;23.92;54.06;101102.97;5088566;28;19923;-74
2023/07/12 11:51:05;;;;;;;;;;;;;;;23.93;54.22;101117.41;5083998;28;19981;-74
2023/07/12 11:53:30;;;;;;;;;;;;;;;23.92;54.12;101115.72;5086521;28;19920;-74
2023/07/12 11:55:56;;;;;;;;;;;;;;;23.92;54.16;101115.72;5049346;28;19917;-73
2023/07/12 11:58:21;;;;;;;;;;;;;;;23.91;54.06;101119.44;5054993;28;19991;-75
2023/07/12 12:00:47;;;;;;;;;;;;;;;23.91;54.05;101116.75;5052207;28;20005;-75
2023/07/12 12:03:13;;;;;;;;;;;;;;;23.91;54.24;101116.75;5050452;28;19917;-75
2023/07/12 12:05:38;;;;;;;;;;;;;;;23.90;54.16;101129.47;5050855;28;19926;-75
2023/07/12 12:08:03;;;;;;;;;;;;;;;23.90;54.29;101109.63;5047378;28;19913;-74
2023/07/12 12:10:32;;;;;;;;;;;;;;;23.90;54.39;101118.63;5053936;28;19920;-75
2023/07/12 12:12:57;;;;;;;;;;;;;;;23.91;53.97;101114.84;5083535;28;19955;-75
2023/07/12 12:15:26;;;;;;;;;;;;;;;23.90;54.19;101117.78;5084724;28;19921;-74
2023/07/12 12:17:53;;;;;;;;;;;;;;;23.90;53.98;101123.22;5051641;28;19932;-74
2023/07/12 12:20:22;;;;;;;;;;;;;;;23.90;53.95;101113.19;5082447;28;19932;-75
2023/07/12 12:23:06;;;;;;;;;;;;;;;23.90;54.18;101115.91;5052582;28;19917;-75
2023/07/12 12:25:31;;;;;;;;;;;;;;;23.90;53.94;101120.50;5052873;28;20185;-75
2023/07/12 12:27:59;;;;;;;;;;;;;;;23.90;54.04;101134.06;5046738;28;20146;-75
2023/07/12 12:30:29;;;;;;;;;;;;;;;23.89;53.94;101133.25;5081079;28;19921;-79
2023/07/12 12:33:00;;;;;;;;;;;;;;;23.90;54.04;101129.47;5052473;28;19949;-79